sensor_id;sensor_type;location;lat;lon;timestamp;P1;durP1;ratioP1;P2;durP2;ratioP2
58982;SDS011;44771;49.982;8.560;2023-11-19T00:00:36;23.15;;;21.48;;
58982;SDS011;44771;49.982;8.560;2023-11-19T00:05:38;20.98;;;19.35;;
58982;SDS011;44771;49.982;8.560;2023-11-19T00:10:41;20.90;;;19.37;;
58982;SDS011;44771;49.982;8.560;2023-11-19T00:15:43;19.87;;;18.27;;
58982;SDS011;44771;49.982;8.560;2023-11-19T00:20:44;22.30;;;20.23;;
58982;SDS011;44771;49.982;8.560;2023-11-19T00:25:50;21.33;;;19.63;;
58982;SDS011;44771;49.982;8.560;2023-11-19T00:30:52;21.35;;;19.80;;
58982;SDS011;44771;49.982;8.560;2023-11-19T00:35:54;21.08;;;19.67;;
58982;SDS011;44771;49.982;8.560;2023-11-19T00:40:57;22.33;;;20.17;;
58982;SDS011;44771;49.982;8.560;2023-11-19T00:45:59;19.60;;;18.17;;
58982;SDS011;44771;49.982;8.560;2023-11-19T00:51:01;19.25;;;17.87;;
58982;SDS011;44771;49.982;8.560;2023-11-19T00:56:04;21.77;;;19.55;;
58982;SDS011;44771;49.982;8.560;2023-11-19T01:01:07;20.55;;;19.35;;
58982;SDS011;44771;49.982;8.560;2023-11-19T01:06:09;21.75;;;20.35;;
58982;SDS011;44771;49.982;8.560;2023-11-19T01:11:20;21.50;;;20.00;;
58982;SDS011;44771;49.982;8.560;2023-11-19T01:16:22;21.65;;;20.25;;
58982;SDS011;44771;49.982;8.560;2023-11-19T01:21:24;20.73;;;19.35;;
58982;SDS011;44771;49.982;8.560;2023-11-19T01:26:29;23.02;;;21.35;;
58982;SDS011;44771;49.982;8.560;2023-11-19T01:31:31;21.87;;;20.30;;
58982;SDS011;44771;49.982;8.560;2023-11-19T01:36:33;23.10;;;21.15;;
58982;SDS011;44771;49.982;8.560;2023-11-19T01:41:38;19.77;;;18.48;;
58982;SDS011;44771;49.982;8.560;2023-11-19T01:46:40;21.45;;;19.90;;
58982;SDS011;44771;49.982;8.560;2023-11-19T01:51:44;21.23;;;19.83;;
58982;SDS011;44771;49.982;8.560;2023-11-19T01:56:51;19.17;;;17.98;;
58982;SDS011;44771;49.982;8.560;2023-11-19T02:01:55;23.08;;;21.33;;
58982;SDS011;44771;49.982;8.560;2023-11-19T02:06:59;20.83;;;19.73;;
58982;SDS011;44771;49.982;8.560;2023-11-19T02:12:03;19.98;;;18.77;;
58982;SDS011;44771;49.982;8.560;2023-11-19T02:17:05;20.65;;;19.33;;
58982;SDS011;44771;49.982;8.560;2023-11-19T02:22:09;19.95;;;18.65;;
58982;SDS011;44771;49.982;8.560;2023-11-19T02:27:13;20.55;;;19.35;;
58982;SDS011;44771;49.982;8.560;2023-11-19T02:32:24;21.42;;;20.02;;
58982;SDS011;44771;49.982;8.560;2023-11-19T02:37:29;21.08;;;19.73;;
58982;SDS011;44771;49.982;8.560;2023-11-19T02:42:30;20.00;;;18.75;;
58982;SDS011;44771;49.982;8.560;2023-11-19T02:47:33;19.55;;;18.45;;
58982;SDS011;44771;49.982;8.560;2023-11-19T02:52:35;21.73;;;20.40;;
58982;SDS011;44771;49.982;8.560;2023-11-19T02:57:37;19.98;;;18.80;;
58982;SDS011;44771;49.982;8.560;2023-11-19T03:02:40;20.83;;;19.52;;
58982;SDS011;44771;49.982;8.560;2023-11-19T03:07:43;22.95;;;21.40;;
58982;SDS011;44771;49.982;8.560;2023-11-19T03:12:45;19.67;;;18.55;;
58982;SDS011;44771;49.982;8.560;2023-11-19T03:17:50;18.58;;;17.48;;
58982;SDS011;44771;49.982;8.560;2023-11-19T03:22:51;19.00;;;17.95;;
58982;SDS011;44771;49.982;8.560;2023-11-19T03:27:53;21.85;;;20.58;;
58982;SDS011;44771;49.982;8.560;2023-11-19T03:32:56;19.02;;;17.95;;
58982;SDS011;44771;49.982;8.560;2023-11-19T03:37:58;20.77;;;19.58;;
58982;SDS011;44771;49.982;8.560;2023-11-19T03:43:00;18.42;;;17.42;;
58982;SDS011;44771;49.982;8.560;2023-11-19T03:48:04;20.55;;;19.40;;
58982;SDS011;44771;49.982;8.560;2023-11-19T03:53:06;20.08;;;19.08;;
58982;SDS011;44771;49.982;8.560;2023-11-19T03:58:08;20.02;;;18.87;;
58982;SDS011;44771;49.982;8.560;2023-11-19T04:03:11;20.60;;;19.55;;
58982;SDS011;44771;49.982;8.560;2023-11-19T04:08:12;19.83;;;18.83;;
58982;SDS011;44771;49.982;8.560;2023-11-19T04:13:14;18.95;;;17.95;;
58982;SDS011;44771;49.982;8.560;2023-11-19T04:18:19;20.10;;;19.00;;
58982;SDS011;44771;49.982;8.560;2023-11-19T04:28:23;20.85;;;19.85;;
58982;SDS011;44771;49.982;8.560;2023-11-19T04:33:26;19.12;;;18.12;;
58982;SDS011;44771;49.982;8.560;2023-11-19T04:38:28;19.00;;;18.05;;
58982;SDS011;44771;49.982;8.560;2023-11-19T04:43:29;21.90;;;20.70;;
58982;SDS011;44771;49.982;8.560;2023-11-19T04:48:34;22.23;;;21.02;;
58982;SDS011;44771;49.982;8.560;2023-11-19T04:53:39;21.05;;;19.98;;
58982;SDS011;44771;49.982;8.560;2023-11-19T04:58:40;19.05;;;18.05;;
58982;SDS011;44771;49.982;8.560;2023-11-19T05:03:44;20.92;;;19.83;;
58982;SDS011;44771;49.982;8.560;2023-11-19T05:08:46;22.33;;;21.20;;
58982;SDS011;44771;49.982;8.560;2023-11-19T05:13:48;24.10;;;22.25;;
58982;SDS011;44771;49.982;8.560;2023-11-19T05:18:53;20.73;;;19.62;;
58982;SDS011;44771;49.982;8.560;2023-11-19T05:23:55;18.35;;;17.35;;
58982;SDS011;44771;49.982;8.560;2023-11-19T05:28:57;21.40;;;20.23;;
58982;SDS011;44771;49.982;8.560;2023-11-19T05:34:00;20.70;;;19.30;;
58982;SDS011;44771;49.982;8.560;2023-11-19T05:39:02;19.92;;;18.83;;
58982;SDS011;44771;49.982;8.560;2023-11-19T05:44:04;19.25;;;18.30;;
58982;SDS011;44771;49.982;8.560;2023-11-19T05:49:08;19.83;;;18.75;;
58982;SDS011;44771;49.982;8.560;2023-11-19T05:54:12;19.95;;;18.95;;
58982;SDS011;44771;49.982;8.560;2023-11-19T05:59:20;20.17;;;19.17;;
58982;SDS011;44771;49.982;8.560;2023-11-19T06:04:23;20.02;;;18.95;;
58982;SDS011;44771;49.982;8.560;2023-11-19T06:09:25;19.23;;;18.23;;
58982;SDS011;44771;49.982;8.560;2023-11-19T06:14:27;20.12;;;19.05;;
58982;SDS011;44771;49.982;8.560;2023-11-19T06:19:30;21.90;;;20.62;;
58982;SDS011;44771;49.982;8.560;2023-11-19T06:24:32;21.25;;;20.15;;
58982;SDS011;44771;49.982;8.560;2023-11-19T06:29:34;21.90;;;20.70;;
58982;SDS011;44771;49.982;8.560;2023-11-19T06:34:37;24.15;;;22.85;;
58982;SDS011;44771;49.982;8.560;2023-11-19T06:39:39;18.15;;;17.15;;
58982;SDS011;44771;49.982;8.560;2023-11-19T06:44:40;22.02;;;20.90;;
58982;SDS011;44771;49.982;8.560;2023-11-19T06:49:46;21.45;;;20.35;;
58982;SDS011;44771;49.982;8.560;2023-11-19T06:54:48;21.27;;;20.23;;
58982;SDS011;44771;49.982;8.560;2023-11-19T06:59:50;21.83;;;20.62;;
58982;SDS011;44771;49.982;8.560;2023-11-19T07:04:53;22.60;;;21.40;;
58982;SDS011;44771;49.982;8.560;2023-11-19T07:09:58;22.60;;;20.98;;
58982;SDS011;44771;49.982;8.560;2023-11-19T07:14:59;21.37;;;20.17;;
58982;SDS011;44771;49.982;8.560;2023-11-19T07:20:03;19.52;;;18.52;;
58982;SDS011;44771;49.982;8.560;2023-11-19T07:25:06;22.53;;;21.27;;
58982;SDS011;44771;49.982;8.560;2023-11-19T07:30:08;20.40;;;19.30;;
58982;SDS011;44771;49.982;8.560;2023-11-19T07:35:11;21.33;;;19.83;;
58982;SDS011;44771;49.982;8.560;2023-11-19T07:40:13;21.95;;;20.73;;
58982;SDS011;44771;49.982;8.560;2023-11-19T07:45:15;22.23;;;20.92;;
58982;SDS011;44771;49.982;8.560;2023-11-19T07:50:19;22.08;;;20.88;;
58982;SDS011;44771;49.982;8.560;2023-11-19T07:55:20;21.87;;;20.73;;
58982;SDS011;44771;49.982;8.560;2023-11-19T08:00:22;20.98;;;19.90;;
58982;SDS011;44771;49.982;8.560;2023-11-19T08:05:25;21.42;;;20.27;;
58982;SDS011;44771;49.982;8.560;2023-11-19T08:10:27;21.65;;;20.20;;
58982;SDS011;44771;49.982;8.560;2023-11-19T08:15:29;20.37;;;19.23;;
58982;SDS011;44771;49.982;8.560;2023-11-19T08:20:34;22.42;;;21.12;;
58982;SDS011;44771;49.982;8.560;2023-11-19T08:25:36;20.08;;;19.08;;
58982;SDS011;44771;49.982;8.560;2023-11-19T08:30:38;20.20;;;19.20;;
58982;SDS011;44771;49.982;8.560;2023-11-19T08:35:42;22.37;;;20.80;;
58982;SDS011;44771;49.982;8.560;2023-11-19T08:40:44;21.98;;;20.77;;
58982;SDS011;44771;49.982;8.560;2023-11-19T08:45:46;22.73;;;21.50;;
58982;SDS011;44771;49.982;8.560;2023-11-19T08:50:52;20.53;;;19.37;;
58982;SDS011;44771;49.982;8.560;2023-11-19T08:55:53;21.20;;;19.70;;
58982;SDS011;44771;49.982;8.560;2023-11-19T09:00:55;21.87;;;20.58;;
58982;SDS011;44771;49.982;8.560;2023-11-19T09:05:58;21.80;;;20.60;;
58982;SDS011;44771;49.982;8.560;2023-11-19T09:11:01;19.75;;;18.67;;
58982;SDS011;44771;49.982;8.560;2023-11-19T09:16:08;22.25;;;21.15;;
58982;SDS011;44771;49.982;8.560;2023-11-19T09:21:13;21.60;;;20.43;;
58982;SDS011;44771;49.982;8.560;2023-11-19T09:26:15;24.25;;;22.77;;
58982;SDS011;44771;49.982;8.560;2023-11-19T09:31:18;21.35;;;20.25;;
58982;SDS011;44771;49.982;8.560;2023-11-19T09:36:21;21.60;;;20.33;;
58982;SDS011;44771;49.982;8.560;2023-11-19T09:41:23;22.05;;;20.83;;
58982;SDS011;44771;49.982;8.560;2023-11-19T09:46:26;21.98;;;20.58;;
58982;SDS011;44771;49.982;8.560;2023-11-19T09:51:29;22.62;;;21.35;;
58982;SDS011;44771;49.982;8.560;2023-11-19T09:56:31;23.95;;;21.85;;
58982;SDS011;44771;49.982;8.560;2023-11-19T10:01:37;20.45;;;19.00;;
58982;SDS011;44771;49.982;8.560;2023-11-19T10:06:40;20.17;;;19.08;;
58982;SDS011;44771;49.982;8.560;2023-11-19T10:11:43;21.62;;;20.20;;
58982;SDS011;44771;49.982;8.560;2023-11-19T10:16:44;21.65;;;20.35;;
58982;SDS011;44771;49.982;8.560;2023-11-19T10:21:48;22.23;;;21.12;;
58982;SDS011;44771;49.982;8.560;2023-11-19T10:26:50;24.60;;;22.37;;
58982;SDS011;44771;49.982;8.560;2023-11-19T10:31:55;23.45;;;21.92;;
58982;SDS011;44771;49.982;8.560;2023-11-19T10:36:59;22.27;;;21.10;;
58982;SDS011;44771;49.982;8.560;2023-11-19T10:42:05;22.33;;;20.92;;
58982;SDS011;44771;49.982;8.560;2023-11-19T10:47:18;22.80;;;21.17;;
58982;SDS011;44771;49.982;8.560;2023-11-19T10:52:38;21.37;;;20.37;;
58982;SDS011;44771;49.982;8.560;2023-11-19T10:57:40;21.08;;;20.02;;
58982;SDS011;44771;49.982;8.560;2023-11-19T11:02:50;21.12;;;19.85;;
58982;SDS011;44771;49.982;8.560;2023-11-19T11:07:56;22.20;;;20.98;;
58982;SDS011;44771;49.982;8.560;2023-11-19T11:12:59;21.80;;;20.70;;
58982;SDS011;44771;49.982;8.560;2023-11-19T11:18:03;24.10;;;22.30;;
58982;SDS011;44771;49.982;8.560;2023-11-19T11:28:39;22.70;;;21.60;;
58982;SDS011;44771;49.982;8.560;2023-11-19T11:33:55;21.27;;;19.98;;
58982;SDS011;44771;49.982;8.560;2023-11-19T11:39:08;25.15;;;22.77;;
58982;SDS011;44771;49.982;8.560;2023-11-19T11:44:10;22.30;;;20.90;;
58982;SDS011;44771;49.982;8.560;2023-11-19T11:49:12;23.20;;;21.60;;
58982;SDS011;44771;49.982;8.560;2023-11-19T11:54:26;28.85;;;27.40;;
58982;SDS011;44771;49.982;8.560;2023-11-19T11:59:31;29.17;;;27.55;;
58982;SDS011;44771;49.982;8.560;2023-11-19T12:04:39;27.45;;;25.85;;
58982;SDS011;44771;49.982;8.560;2023-11-19T12:09:42;24.00;;;22.80;;
58982;SDS011;44771;49.982;8.560;2023-11-19T12:15:06;27.50;;;25.62;;
58982;SDS011;44771;49.982;8.560;2023-11-19T12:20:09;25.88;;;24.37;;
58982;SDS011;44771;49.982;8.560;2023-11-19T12:25:13;24.92;;;23.62;;
58982;SDS011;44771;49.982;8.560;2023-11-19T12:30:16;27.58;;;25.98;;
58982;SDS011;44771;49.982;8.560;2023-11-19T12:35:19;27.20;;;25.48;;
58982;SDS011;44771;49.982;8.560;2023-11-19T12:40:23;27.65;;;26.25;;
58982;SDS011;44771;49.982;8.560;2023-11-19T12:45:33;36.03;;;33.83;;
58982;SDS011;44771;49.982;8.560;2023-11-19T12:50:51;33.78;;;31.98;;
58982;SDS011;44771;49.982;8.560;2023-11-19T12:55:54;26.17;;;24.63;;
58982;SDS011;44771;49.982;8.560;2023-11-19T13:00:59;27.37;;;26.05;;
58982;SDS011;44771;49.982;8.560;2023-11-19T13:06:02;28.92;;;27.02;;
58982;SDS011;44771;49.982;8.560;2023-11-19T13:11:06;30.27;;;27.95;;
58982;SDS011;44771;49.982;8.560;2023-11-19T13:16:09;28.10;;;26.05;;
58982;SDS011;44771;49.982;8.560;2023-11-19T13:21:11;28.30;;;26.85;;
58982;SDS011;44771;49.982;8.560;2023-11-19T13:26:14;27.95;;;26.55;;
58982;SDS011;44771;49.982;8.560;2023-11-19T13:31:17;26.10;;;24.70;;
58982;SDS011;44771;49.982;8.560;2023-11-19T13:36:19;29.25;;;26.75;;
58982;SDS011;44771;49.982;8.560;2023-11-19T13:41:22;29.12;;;27.23;;
58982;SDS011;44771;49.982;8.560;2023-11-19T13:46:24;26.42;;;25.02;;
58982;SDS011;44771;49.982;8.560;2023-11-19T13:51:26;32.35;;;30.52;;
58982;SDS011;44771;49.982;8.560;2023-11-19T13:56:29;28.92;;;27.13;;
58982;SDS011;44771;49.982;8.560;2023-11-19T14:01:31;27.67;;;25.98;;
58982;SDS011;44771;49.982;8.560;2023-11-19T14:06:33;26.25;;;24.40;;
58982;SDS011;44771;49.982;8.560;2023-11-19T14:11:36;26.52;;;24.85;;
58982;SDS011;44771;49.982;8.560;2023-11-19T14:16:38;27.70;;;26.27;;
58982;SDS011;44771;49.982;8.560;2023-11-19T14:21:40;23.70;;;22.50;;
58982;SDS011;44771;49.982;8.560;2023-11-19T14:26:45;28.05;;;25.98;;
58982;SDS011;44771;49.982;8.560;2023-11-19T14:31:49;24.20;;;23.00;;
58982;SDS011;44771;49.982;8.560;2023-11-19T14:36:52;23.48;;;22.15;;
58982;SDS011;44771;49.982;8.560;2023-11-19T14:41:55;24.92;;;23.52;;
58982;SDS011;44771;49.982;8.560;2023-11-19T14:46:57;23.55;;;21.85;;
58982;SDS011;44771;49.982;8.560;2023-11-19T14:51:59;23.87;;;22.37;;
58982;SDS011;44771;49.982;8.560;2023-11-19T14:57:05;24.23;;;22.95;;
58982;SDS011;44771;49.982;8.560;2023-11-19T15:02:08;24.15;;;22.95;;
58982;SDS011;44771;49.982;8.560;2023-11-19T15:07:09;22.27;;;21.15;;
58982;SDS011;44771;49.982;8.560;2023-11-19T15:12:13;23.25;;;21.95;;
58982;SDS011;44771;49.982;8.560;2023-11-19T15:17:15;20.73;;;19.73;;
58982;SDS011;44771;49.982;8.560;2023-11-19T15:22:16;22.40;;;20.90;;
58982;SDS011;44771;49.982;8.560;2023-11-19T15:27:20;23.75;;;21.37;;
58982;SDS011;44771;49.982;8.560;2023-11-19T15:32:21;24.02;;;22.75;;
58982;SDS011;44771;49.982;8.560;2023-11-19T15:37:23;22.20;;;21.10;;
58982;SDS011;44771;49.982;8.560;2023-11-19T15:42:26;23.45;;;21.25;;
58982;SDS011;44771;49.982;8.560;2023-11-19T15:47:28;21.10;;;20.10;;
58982;SDS011;44771;49.982;8.560;2023-11-19T15:52:30;21.77;;;20.52;;
58982;SDS011;44771;49.982;8.560;2023-11-19T15:57:33;20.00;;;19.00;;
58982;SDS011;44771;49.982;8.560;2023-11-19T16:02:35;21.52;;;20.45;;
58982;SDS011;44771;49.982;8.560;2023-11-19T16:07:37;21.65;;;20.10;;
58982;SDS011;44771;49.982;8.560;2023-11-19T16:12:40;20.00;;;18.33;;
58982;SDS011;44771;49.982;8.560;2023-11-19T16:17:42;22.08;;;20.25;;
58982;SDS011;44771;49.982;8.560;2023-11-19T16:22:44;21.20;;;20.20;;
58982;SDS011;44771;49.982;8.560;2023-11-19T16:27:47;21.75;;;20.60;;
58982;SDS011;44771;49.982;8.560;2023-11-19T16:32:51;20.60;;;19.60;;
58982;SDS011;44771;49.982;8.560;2023-11-19T16:37:53;20.33;;;19.33;;
58982;SDS011;44771;49.982;8.560;2023-11-19T16:42:57;21.25;;;19.35;;
58982;SDS011;44771;49.982;8.560;2023-11-19T16:47:59;20.95;;;19.80;;
58982;SDS011;44771;49.982;8.560;2023-11-19T16:53:00;21.33;;;20.02;;
58982;SDS011;44771;49.982;8.560;2023-11-19T16:58:04;21.33;;;20.23;;
58982;SDS011;44771;49.982;8.560;2023-11-19T17:03:08;19.35;;;18.35;;
58982;SDS011;44771;49.982;8.560;2023-11-19T17:08:09;19.67;;;18.37;;
58982;SDS011;44771;49.982;8.560;2023-11-19T17:13:13;19.45;;;18.45;;
58982;SDS011;44771;49.982;8.560;2023-11-19T17:18:15;21.73;;;19.73;;
58982;SDS011;44771;49.982;8.560;2023-11-19T17:23:17;22.75;;;21.45;;
58982;SDS011;44771;49.982;8.560;2023-11-19T17:28:20;21.92;;;20.60;;
58982;SDS011;44771;49.982;8.560;2023-11-19T17:33:22;20.00;;;18.87;;
58982;SDS011;44771;49.982;8.560;2023-11-19T17:38:24;20.42;;;19.23;;
58982;SDS011;44771;49.982;8.560;2023-11-19T17:43:29;21.95;;;20.60;;
58982;SDS011;44771;49.982;8.560;2023-11-19T17:48:31;21.60;;;20.50;;
58982;SDS011;44771;49.982;8.560;2023-11-19T17:53:33;21.83;;;20.12;;
58982;SDS011;44771;49.982;8.560;2023-11-19T17:58:36;21.98;;;20.88;;
58982;SDS011;44771;49.982;8.560;2023-11-19T18:03:38;21.27;;;19.35;;
58982;SDS011;44771;49.982;8.560;2023-11-19T18:08:40;19.98;;;18.60;;
58982;SDS011;44771;49.982;8.560;2023-11-19T18:13:43;20.62;;;19.27;;
58982;SDS011;44771;49.982;8.560;2023-11-19T18:18:46;21.40;;;20.30;;
58982;SDS011;44771;49.982;8.560;2023-11-19T18:23:51;22.55;;;20.40;;
58982;SDS011;44771;49.982;8.560;2023-11-19T18:28:54;20.42;;;19.25;;
58982;SDS011;44771;49.982;8.560;2023-11-19T18:33:56;23.05;;;21.08;;
58982;SDS011;44771;49.982;8.560;2023-11-19T18:38:58;20.12;;;18.55;;
58982;SDS011;44771;49.982;8.560;2023-11-19T18:44:01;24.37;;;22.87;;
58982;SDS011;44771;49.982;8.560;2023-11-19T18:49:03;21.25;;;20.17;;
58982;SDS011;44771;49.982;8.560;2023-11-19T18:54:05;21.85;;;20.23;;
58982;SDS011;44771;49.982;8.560;2023-11-19T18:59:11;21.55;;;20.35;;
58982;SDS011;44771;49.982;8.560;2023-11-19T19:04:13;20.37;;;19.37;;
58982;SDS011;44771;49.982;8.560;2023-11-19T19:09:15;20.85;;;19.55;;
58982;SDS011;44771;49.982;8.560;2023-11-19T19:14:18;22.17;;;21.08;;
58982;SDS011;44771;49.982;8.560;2023-11-19T19:19:20;21.55;;;19.92;;
58982;SDS011;44771;49.982;8.560;2023-11-19T19:24:22;20.23;;;19.02;;
58982;SDS011;44771;49.982;8.560;2023-11-19T19:29:25;19.98;;;18.73;;
58982;SDS011;44771;49.982;8.560;2023-11-19T19:34:27;25.83;;;20.75;;
58982;SDS011;44771;49.982;8.560;2023-11-19T19:39:29;20.88;;;18.87;;
58982;SDS011;44771;49.982;8.560;2023-11-19T19:44:32;19.65;;;18.50;;
58982;SDS011;44771;49.982;8.560;2023-11-19T19:49:34;19.73;;;18.62;;
58982;SDS011;44771;49.982;8.560;2023-11-19T19:54:36;23.38;;;21.33;;
58982;SDS011;44771;49.982;8.560;2023-11-19T19:59:39;20.60;;;19.08;;
58982;SDS011;44771;49.982;8.560;2023-11-19T20:04:42;20.45;;;19.45;;
58982;SDS011;44771;49.982;8.560;2023-11-19T20:09:50;22.25;;;21.05;;
58982;SDS011;44771;49.982;8.560;2023-11-19T20:14:53;21.58;;;20.45;;
58982;SDS011;44771;49.982;8.560;2023-11-19T20:19:55;20.95;;;19.75;;
58982;SDS011;44771;49.982;8.560;2023-11-19T20:24:57;20.08;;;19.08;;
58982;SDS011;44771;49.982;8.560;2023-11-19T20:30:00;21.10;;;19.90;;
58982;SDS011;44771;49.982;8.560;2023-11-19T20:35:02;20.70;;;19.30;;
58982;SDS011;44771;49.982;8.560;2023-11-19T20:40:05;20.37;;;19.37;;
58982;SDS011;44771;49.982;8.560;2023-11-19T20:45:09;20.92;;;19.92;;
58982;SDS011;44771;49.982;8.560;2023-11-19T20:50:11;20.25;;;19.05;;
58982;SDS011;44771;49.982;8.560;2023-11-19T20:55:13;21.80;;;20.33;;
58982;SDS011;44771;49.982;8.560;2023-11-19T21:00:16;21.52;;;20.02;;
58982;SDS011;44771;49.982;8.560;2023-11-19T21:05:19;22.52;;;21.40;;
58982;SDS011;44771;49.982;8.560;2023-11-19T21:10:20;22.65;;;20.67;;
58982;SDS011;44771;49.982;8.560;2023-11-19T21:15:24;22.35;;;20.80;;
58982;SDS011;44771;49.982;8.560;2023-11-19T21:20:26;23.60;;;20.52;;
58982;SDS011;44771;49.982;8.560;2023-11-19T21:25:28;23.23;;;21.37;;
58982;SDS011;44771;49.982;8.560;2023-11-19T21:30:31;20.55;;;19.40;;
58982;SDS011;44771;49.982;8.560;2023-11-19T21:35:33;20.45;;;19.12;;
58982;SDS011;44771;49.982;8.560;2023-11-19T21:40:35;21.42;;;19.90;;
58982;SDS011;44771;49.982;8.560;2023-11-19T21:45:38;19.42;;;18.12;;
58982;SDS011;44771;49.982;8.560;2023-11-19T21:50:40;19.00;;;18.00;;
58982;SDS011;44771;49.982;8.560;2023-11-19T21:55:42;21.08;;;19.23;;
58982;SDS011;44771;49.982;8.560;2023-11-19T22:00:47;22.10;;;20.45;;
58982;SDS011;44771;49.982;8.560;2023-11-19T22:05:49;22.87;;;21.55;;
58982;SDS011;44771;49.982;8.560;2023-11-19T22:10:50;21.45;;;20.10;;
58982;SDS011;44771;49.982;8.560;2023-11-19T22:15:53;20.98;;;19.45;;
58982;SDS011;44771;49.982;8.560;2023-11-19T22:20:55;23.67;;;19.62;;
58982;SDS011;44771;49.982;8.560;2023-11-19T22:26:00;22.10;;;20.90;;
58982;SDS011;44771;49.982;8.560;2023-11-19T22:31:03;21.67;;;20.33;;
58982;SDS011;44771;49.982;8.560;2023-11-19T22:36:05;22.35;;;20.70;;
58982;SDS011;44771;49.982;8.560;2023-11-19T22:41:08;20.52;;;18.75;;
58982;SDS011;44771;49.982;8.560;2023-11-19T22:46:13;21.57;;;20.10;;
58982;SDS011;44771;49.982;8.560;2023-11-19T22:51:16;22.47;;;20.70;;
58982;SDS011;44771;49.982;8.560;2023-11-19T22:56:18;21.80;;;20.08;;
58982;SDS011;44771;49.982;8.560;2023-11-19T23:01:21;22.67;;;21.08;;
58982;SDS011;44771;49.982;8.560;2023-11-19T23:06:23;22.52;;;21.33;;
58982;SDS011;44771;49.982;8.560;2023-11-19T23:11:25;21.90;;;20.77;;
58982;SDS011;44771;49.982;8.560;2023-11-19T23:16:28;22.27;;;20.23;;
58982;SDS011;44771;49.982;8.560;2023-11-19T23:21:30;19.55;;;18.30;;
58982;SDS011;44771;49.982;8.560;2023-11-19T23:26:32;22.00;;;20.70;;
58982;SDS011;44771;49.982;8.560;2023-11-19T23:31:35;21.20;;;19.90;;
58982;SDS011;44771;49.982;8.560;2023-11-19T23:36:37;21.42;;;20.20;;
58982;SDS011;44771;49.982;8.560;2023-11-19T23:41:38;20.20;;;18.80;;
58982;SDS011;44771;49.982;8.560;2023-11-19T23:46:43;17.73;;;16.67;;
58982;SDS011;44771;49.982;8.560;2023-11-19T23:51:45;20.45;;;19.45;;
58982;SDS011;44771;49.982;8.560;2023-11-19T23:56:50;22.17;;;20.73;;
